createdAt,value
2022-10-02T00:02:50.531Z,10.50
2022-10-02T00:05:41.373Z,10.46
2022-10-02T00:08:35.539Z,10.51
2022-10-02T00:11:25.157Z,10.46
2022-10-02T00:14:15.298Z,10.42
2022-10-02T00:17:01.485Z,10.47
2022-10-02T00:19:46.734Z,10.51
2022-10-02T00:22:50.934Z,10.48
2022-10-02T00:25:48.180Z,10.51
2022-10-02T00:28:50.190Z,10.56
2022-10-02T00:31:59.396Z,10.62
2022-10-02T00:34:59.903Z,10.61
2022-10-02T00:38:14.271Z,10.63
2022-10-02T00:41:11.470Z,10.70
2022-10-02T00:44:33.109Z,10.80
2022-10-02T00:47:33.640Z,10.80
2022-10-02T00:50:37.211Z,10.77
2022-10-02T00:53:43.666Z,10.91
2022-10-02T00:56:47.396Z,10.93
2022-10-02T00:59:38.735Z,10.94
2022-10-02T01:02:23.884Z,10.90
2022-10-02T01:05:09.949Z,10.92
2022-10-02T01:07:55.934Z,10.95
2022-10-02T01:10:41.811Z,10.93
2022-10-02T01:13:26.989Z,10.95
2022-10-02T01:16:13.624Z,10.98
2022-10-02T01:18:58.756Z,11.04
2022-10-02T01:21:49.142Z,11.06
2022-10-02T01:24:39.813Z,10.99
2022-10-02T01:27:26.124Z,11.02
2022-10-02T01:30:15.457Z,11.15
2022-10-02T01:33:03.341Z,11.07
2022-10-02T01:35:48.903Z,11.08
2022-10-02T01:38:35.072Z,11.10
2022-10-02T01:41:20.020Z,11.14
2022-10-02T01:44:05.322Z,11.14
2022-10-02T01:47:10.495Z,11.17
2022-10-02T01:50:34.247Z,11.26
2022-10-02T01:53:44.148Z,11.24
2022-10-02T01:56:35.414Z,11.29
2022-10-02T01:59:47.635Z,11.32
2022-10-02T02:02:48.229Z,11.29
2022-10-02T02:06:01.364Z,11.30
2022-10-02T02:08:54.478Z,11.27
2022-10-02T02:11:51.374Z,11.30
2022-10-02T02:14:45.055Z,11.35
2022-10-02T02:17:40.370Z,11.38
2022-10-02T02:20:32.585Z,11.48
2022-10-02T02:23:22.536Z,11.48
2022-10-02T02:26:11.938Z,11.60
2022-10-02T02:29:01.780Z,11.64
2022-10-02T02:31:52.080Z,11.64
2022-10-02T02:34:45.673Z,11.64
2022-10-02T02:37:35.948Z,11.61
2022-10-02T02:40:28.113Z,11.62
2022-10-02T02:43:20.885Z,11.64
2022-10-02T02:46:23.669Z,11.65
2022-10-02T02:49:11.730Z,11.67
2022-10-02T02:52:00.645Z,11.69
2022-10-02T02:54:56.033Z,11.69
2022-10-02T02:57:49.372Z,11.64
2022-10-02T03:00:34.866Z,11.63
2022-10-02T03:03:20.181Z,11.66
2022-10-02T03:06:17.465Z,11.70
2022-10-02T03:09:02.659Z,11.73
2022-10-02T03:12:19.442Z,11.75
2022-10-02T03:15:43.170Z,11.75
2022-10-02T03:18:31.383Z,11.76
2022-10-02T03:21:30.381Z,11.77
2022-10-02T03:24:45.721Z,11.76
2022-10-02T03:27:54.037Z,11.70
2022-10-02T03:30:41.969Z,11.76
2022-10-02T03:33:28.910Z,11.74
2022-10-02T03:36:14.612Z,11.80
2022-10-02T03:42:11.885Z,11.77
2022-10-02T03:44:56.707Z,11.82
2022-10-02T03:47:42.069Z,11.82
2022-10-02T03:50:26.944Z,11.88
2022-10-02T03:53:18.802Z,11.90
2022-10-02T03:56:12.420Z,11.92
2022-10-02T03:59:01.406Z,11.90
2022-10-02T04:01:50.455Z,11.87
2022-10-02T04:04:45.325Z,11.84
2022-10-02T04:07:36.874Z,11.80
2022-10-02T04:10:28.165Z,11.75
2022-10-02T04:13:32.057Z,11.74
2022-10-02T04:16:27.685Z,11.72
2022-10-02T04:19:23.705Z,11.64
2022-10-02T04:22:15.535Z,11.58
2022-10-02T04:25:12.160Z,11.61
2022-10-02T04:28:02.963Z,11.60
2022-10-02T04:30:48.152Z,11.60
2022-10-02T04:33:38.247Z,11.65
2022-10-02T04:36:59.674Z,11.67
2022-10-02T04:40:01.356Z,11.72
2022-10-02T04:43:34.562Z,11.76
2022-10-02T04:46:44.981Z,11.85
2022-10-02T04:49:48.279Z,11.89
2022-10-02T04:52:36.027Z,11.92
2022-10-02T04:55:38.657Z,11.91
2022-10-02T04:58:38.964Z,11.88
2022-10-02T05:01:26.883Z,11.88
2022-10-02T05:04:33.388Z,11.96
2022-10-02T05:07:46.747Z,11.93
2022-10-02T05:10:43.354Z,11.93
2022-10-02T05:13:34.483Z,11.92
2022-10-02T05:16:37.755Z,11.89
2022-10-02T05:20:00.509Z,11.91
2022-10-02T05:23:18.632Z,11.89
2022-10-02T05:26:41.572Z,11.94
2022-10-02T05:29:38.875Z,11.94
2022-10-02T05:32:49.160Z,12.00
2022-10-02T05:36:05.466Z,11.97
2022-10-02T05:39:02.655Z,11.95
2022-10-02T05:42:06.413Z,11.97
2022-10-02T05:44:59.900Z,12.01
2022-10-02T05:47:45.518Z,12.04
2022-10-02T05:50:35.398Z,12.07
2022-10-02T05:53:38.668Z,12.07
2022-10-02T05:56:40.486Z,12.15
2022-10-02T05:59:39.271Z,12.14
2022-10-02T06:02:41.071Z,12.13
2022-10-02T06:05:53.466Z,12.15
2022-10-02T06:08:46.502Z,12.16
2022-10-02T06:11:52.709Z,12.20
2022-10-02T06:14:50.792Z,12.24
2022-10-02T06:17:53.246Z,12.27
2022-10-02T06:21:23.745Z,12.26
2022-10-02T06:24:18.513Z,12.23
2022-10-02T06:27:12.596Z,12.28
2022-10-02T06:30:02.497Z,12.29
2022-10-02T06:33:21.651Z,12.34
2022-10-02T06:36:25.389Z,12.40
2022-10-02T06:39:22.560Z,12.43
2022-10-02T06:42:47.971Z,12.53
2022-10-02T06:46:02.336Z,12.54
2022-10-02T06:48:59.714Z,12.55
2022-10-02T06:51:47.351Z,12.64
2022-10-02T06:54:42.099Z,12.62
2022-10-02T06:58:05.047Z,12.68
2022-10-02T07:00:56.617Z,12.71
2022-10-02T07:04:14.242Z,12.75
2022-10-02T07:07:12.637Z,12.83
2022-10-02T07:10:12.897Z,12.85
2022-10-02T07:13:13.511Z,12.89
2022-10-02T07:16:22.517Z,12.92
2022-10-02T07:19:41.611Z,12.95
2022-10-02T07:22:54.622Z,13.02
2022-10-02T07:25:58.097Z,13.10
2022-10-02T07:28:51.477Z,13.23
2022-10-02T07:32:08.745Z,13.17
2022-10-02T07:35:07.939Z,13.22
2022-10-02T07:38:14.399Z,13.29
2022-10-02T07:41:18.650Z,13.30
2022-10-02T07:44:19.254Z,13.37
2022-10-02T07:47:15.963Z,13.39
2022-10-02T07:50:25.936Z,13.38
2022-10-02T07:53:22.987Z,13.36
2022-10-02T07:56:11.862Z,13.49
2022-10-02T07:59:03.747Z,13.35
2022-10-02T08:01:50.708Z,13.32
2022-10-02T08:04:37.365Z,13.41
2022-10-02T08:07:22.795Z,13.52
2022-10-02T08:10:12.719Z,13.52
2022-10-02T08:13:06.243Z,13.46
2022-10-02T08:15:56.055Z,13.64
2022-10-02T08:18:49.014Z,13.57
2022-10-02T08:21:43.059Z,13.67
2022-10-02T08:24:36.276Z,13.73
2022-10-02T08:27:28.917Z,13.69
2022-10-02T08:30:14.200Z,13.76
2022-10-02T08:32:59.201Z,13.83
2022-10-02T08:36:22.180Z,13.86
2022-10-02T08:39:13.440Z,13.74
2022-10-02T08:42:23.665Z,13.82
2022-10-02T08:45:32.609Z,13.84
2022-10-02T08:48:46.651Z,14.00
2022-10-02T08:51:40.982Z,14.17
2022-10-02T08:54:46.157Z,14.19
2022-10-02T08:57:49.710Z,14.44
2022-10-02T09:00:46.867Z,14.48
2022-10-02T09:04:03.340Z,14.46
2022-10-02T09:07:10.256Z,14.53
2022-10-02T09:09:58.959Z,14.46
2022-10-02T09:12:53.545Z,14.55
2022-10-02T09:15:56.242Z,14.56
2022-10-02T09:19:10.857Z,14.61
2022-10-02T09:22:35.982Z,14.70
2022-10-02T09:25:38.971Z,14.47
2022-10-02T09:28:30.035Z,14.61
2022-10-02T09:31:36.794Z,14.67
2022-10-02T09:35:00.357Z,14.73
2022-10-02T09:38:07.030Z,14.76
2022-10-02T09:41:27.095Z,14.70
2022-10-02T09:44:23.206Z,14.75
2022-10-02T09:47:21.923Z,14.90
2022-10-02T09:50:10.183Z,14.89
2022-10-02T09:53:23.610Z,14.97
2022-10-02T09:56:27.231Z,14.80
2022-10-02T09:59:30.368Z,14.97
2022-10-02T10:02:25.857Z,15.05
2022-10-02T10:05:30.475Z,15.03
2022-10-02T10:08:18.437Z,14.91
2022-10-02T10:11:22.282Z,14.83
2022-10-02T10:14:16.665Z,14.95
2022-10-02T10:17:20.564Z,14.99
2022-10-02T10:20:08.448Z,14.96
2022-10-02T10:22:59.458Z,14.98
2022-10-02T10:26:02.762Z,14.78
2022-10-02T10:29:25.552Z,14.98
2022-10-02T10:32:22.652Z,15.20
2022-10-02T10:35:34.505Z,15.36
2022-10-02T10:38:41.563Z,15.65
2022-10-02T10:41:41.728Z,15.73
2022-10-02T10:44:29.725Z,15.42
2022-10-02T10:48:06.626Z,15.50
2022-10-02T10:51:07.900Z,15.66
2022-10-02T10:54:31.003Z,15.61
2022-10-02T10:57:24.374Z,15.74
2022-10-02T11:00:09.389Z,15.77
2022-10-02T11:03:12.424Z,15.80
2022-10-02T11:06:09.655Z,15.76
2022-10-02T11:09:33.366Z,15.76
2022-10-02T11:12:27.589Z,15.77
2022-10-02T11:15:27.085Z,15.72
2022-10-02T11:18:24.770Z,15.96
2022-10-02T11:21:38.601Z,15.97
2022-10-02T11:24:37.772Z,16.18
2022-10-02T11:27:53.470Z,16.32
2022-10-02T11:31:00.095Z,16.48
2022-10-02T11:34:22.942Z,16.09
2022-10-02T11:37:21.525Z,16.33
2022-10-02T11:40:37.454Z,16.51
2022-10-02T11:44:13.562Z,16.63
2022-10-02T11:47:17.203Z,16.46
2022-10-02T11:50:32.640Z,16.40
2022-10-02T11:53:21.046Z,16.27
2022-10-02T11:56:13.595Z,16.46
2022-10-02T11:59:28.412Z,16.30
2022-10-02T12:02:35.409Z,16.32
2022-10-02T12:06:06.405Z,16.30
2022-10-02T12:09:10.157Z,16.03
2022-10-02T12:12:13.974Z,15.95
2022-10-02T12:15:04.559Z,15.96
2022-10-02T12:17:54.368Z,16.25
2022-10-02T12:20:59.545Z,16.25
2022-10-02T12:23:55.457Z,16.42
2022-10-02T12:26:40.420Z,16.50
2022-10-02T12:29:37.233Z,16.71
2022-10-02T12:32:53.450Z,16.78
2022-10-02T12:35:59.211Z,16.52
2022-10-02T12:39:16.739Z,16.36
2022-10-02T12:42:16.295Z,15.99
2022-10-02T12:45:19.307Z,15.94
2022-10-02T12:48:14.125Z,15.47
2022-10-02T12:51:37.851Z,15.54
2022-10-02T12:54:23.028Z,16.14
2022-10-02T12:57:17.102Z,16.87
2022-10-02T13:00:53.527Z,16.88
2022-10-02T13:04:27.144Z,17.74
2022-10-02T13:07:16.991Z,18.33
2022-10-02T13:10:23.842Z,18.67
2022-10-02T13:13:46.015Z,19.30
2022-10-02T13:16:31.217Z,19.92
2022-10-02T13:19:39.829Z,18.95
2022-10-02T13:23:00.393Z,17.93
2022-10-02T13:25:48.399Z,17.67
2022-10-02T13:29:07.695Z,17.35
2022-10-02T13:31:56.400Z,16.91
2022-10-02T13:34:56.138Z,17.00
2022-10-02T13:38:06.052Z,17.01
2022-10-02T13:41:12.167Z,16.96
2022-10-02T13:44:20.816Z,16.93
2022-10-02T13:47:06.040Z,17.10
2022-10-02T13:50:25.538Z,17.22
2022-10-02T13:53:16.444Z,17.04
2022-10-02T13:56:15.336Z,17.00
2022-10-02T13:59:31.464Z,16.91
2022-10-02T14:02:47.295Z,16.79
2022-10-02T14:05:35.694Z,17.00
2022-10-02T14:08:54.165Z,17.01
2022-10-02T14:12:07.495Z,17.51
2022-10-02T14:15:14.344Z,17.16
2022-10-02T14:18:26.854Z,17.31
2022-10-02T14:21:37.205Z,17.10
2022-10-02T14:24:37.711Z,17.00
2022-10-02T14:27:50.672Z,16.90
2022-10-02T14:30:50.997Z,16.76
2022-10-02T14:34:01.541Z,16.71
2022-10-02T14:37:00.258Z,16.41
2022-10-02T14:39:45.417Z,16.48
2022-10-02T14:42:52.727Z,16.39
2022-10-02T14:46:04.534Z,16.41
2022-10-02T14:49:14.410Z,16.44
2022-10-02T14:52:22.038Z,16.48
2022-10-02T14:55:15.368Z,16.57
2022-10-02T14:58:06.388Z,16.70
2022-10-02T15:01:08.945Z,16.62
2022-10-02T15:04:13.032Z,16.44
2022-10-02T15:07:12.166Z,16.59
2022-10-02T15:10:14.417Z,16.58
2022-10-02T15:13:14.018Z,16.69
2022-10-02T15:16:20.154Z,16.74
2022-10-02T15:19:20.071Z,16.73
2022-10-02T15:22:21.689Z,16.64
2022-10-02T15:25:32.971Z,16.52
2022-10-02T15:28:37.346Z,16.57
2022-10-02T15:31:36.567Z,16.50
2022-10-02T15:34:33.426Z,16.65
2022-10-02T15:37:33.423Z,16.74
2022-10-02T15:40:33.811Z,16.93
2022-10-02T15:44:00.121Z,17.00
2022-10-02T15:46:56.692Z,17.12
2022-10-02T15:50:06.727Z,17.19
2022-10-02T15:53:08.876Z,17.22
2022-10-02T15:56:13.888Z,17.20
2022-10-02T15:59:30.646Z,17.11
2022-10-02T16:02:34.747Z,16.82
2022-10-02T16:05:29.068Z,16.59
2022-10-02T16:08:32.754Z,16.65
2022-10-02T16:11:33.035Z,16.93
2022-10-02T16:14:27.659Z,16.62
2022-10-02T16:17:57.528Z,16.39
2022-10-02T16:20:54.945Z,16.08
2022-10-02T16:23:53.800Z,16.03
2022-10-02T16:27:20.538Z,15.90
2022-10-02T16:30:16.387Z,15.93
2022-10-02T16:33:20.762Z,15.62
2022-10-02T16:36:27.078Z,15.56
2022-10-02T16:39:24.410Z,15.52
2022-10-02T16:42:28.212Z,15.47
2022-10-02T16:45:25.123Z,15.40
2022-10-02T16:48:14.783Z,15.36
2022-10-02T16:51:28.752Z,15.11
2022-10-02T16:54:37.205Z,15.01
2022-10-02T16:57:25.177Z,14.95
2022-10-02T17:00:31.545Z,14.88
2022-10-02T17:03:33.403Z,14.78
2022-10-02T17:06:41.810Z,14.68
2022-10-02T17:09:34.757Z,14.60
2022-10-02T17:12:49.306Z,14.56
2022-10-02T17:15:46.611Z,14.60
2022-10-02T17:18:45.190Z,14.49
2022-10-02T17:21:50.056Z,14.45
2022-10-02T17:25:09.081Z,14.38
2022-10-02T17:28:19.491Z,14.28
2022-10-02T17:31:38.639Z,14.20
2022-10-02T17:34:27.279Z,14.07
2022-10-02T17:37:18.152Z,14.02
2022-10-02T17:40:24.285Z,14.08
2022-10-02T17:43:37.705Z,13.94
2022-10-02T17:46:58.335Z,13.90
2022-10-02T17:50:05.199Z,13.83
2022-10-02T17:53:00.491Z,13.64
2022-10-02T17:56:18.847Z,13.71
2022-10-02T17:59:31.959Z,13.62
2022-10-02T18:02:58.488Z,13.69
2022-10-02T18:05:57.377Z,13.66
2022-10-02T18:08:54.935Z,13.49
2022-10-02T18:12:11.866Z,13.47
2022-10-02T18:14:56.958Z,13.44
2022-10-02T18:18:07.908Z,13.13
2022-10-02T18:22:00.846Z,13.17
2022-10-02T18:25:03.700Z,13.10
2022-10-02T18:28:15.516Z,13.09
2022-10-02T18:31:44.343Z,13.00
2022-10-02T18:34:54.240Z,12.91
2022-10-02T18:37:49.885Z,12.94
2022-10-02T18:40:51.972Z,12.94
2022-10-02T18:43:55.961Z,12.96
2022-10-02T18:46:53.250Z,12.90
2022-10-02T18:50:14.436Z,12.73
2022-10-02T18:53:08.706Z,12.72
2022-10-02T18:56:12.809Z,12.64
2022-10-02T18:59:29.564Z,12.67
2022-10-02T19:02:38.314Z,12.45
2022-10-02T19:05:56.030Z,12.49
2022-10-02T19:08:59.969Z,12.30
2022-10-02T19:11:53.404Z,12.36
2022-10-02T19:14:41.005Z,12.25
2022-10-02T19:17:28.489Z,12.33
2022-10-02T19:20:50.811Z,12.28
2022-10-02T19:23:41.702Z,12.32
2022-10-02T19:26:34.158Z,12.23
2022-10-02T19:29:19.710Z,12.17
2022-10-02T19:32:10.593Z,12.18
2022-10-02T19:35:19.797Z,11.96
2022-10-02T19:38:22.241Z,11.93
2022-10-02T19:41:18.029Z,11.79
2022-10-02T19:44:07.865Z,11.77
2022-10-02T19:46:55.966Z,11.66
2022-10-02T19:49:41.644Z,11.54
2022-10-02T19:52:54.204Z,11.56
2022-10-02T19:55:42.263Z,11.36
2022-10-02T19:58:33.527Z,11.30
2022-10-02T20:01:26.433Z,11.15
2022-10-02T20:04:18.403Z,11.20
2022-10-02T20:07:04.577Z,11.00
2022-10-02T20:10:03.344Z,10.89
2022-10-02T20:12:58.019Z,10.82
2022-10-02T20:15:43.572Z,10.76
2022-10-02T20:18:28.858Z,10.76
2022-10-02T20:21:37.660Z,10.87
2022-10-02T20:24:41.638Z,10.93
2022-10-02T20:27:51.090Z,10.97
2022-10-02T20:30:45.518Z,11.08
2022-10-02T20:33:52.240Z,11.05
2022-10-02T20:36:51.226Z,11.19
2022-10-02T20:39:44.535Z,11.18
2022-10-02T20:42:38.998Z,11.08
2022-10-02T20:45:34.561Z,11.00
2022-10-02T20:49:07.997Z,10.81
2022-10-02T20:52:33.181Z,10.51
2022-10-02T20:55:26.370Z,10.45
2022-10-02T20:58:20.392Z,10.53
2022-10-02T21:01:18.355Z,10.48
2022-10-02T21:04:40.993Z,10.44
2022-10-02T21:07:44.604Z,10.35
2022-10-02T21:10:59.355Z,10.23
2022-10-02T21:13:56.381Z,10.29
2022-10-02T21:17:25.814Z,10.38
2022-10-02T21:20:50.377Z,10.33
2022-10-02T21:23:48.866Z,10.42
2022-10-02T21:27:05.380Z,10.50
2022-10-02T21:29:58.122Z,10.49
2022-10-02T21:32:55.820Z,10.46
2022-10-02T21:35:49.140Z,10.31
2022-10-02T21:39:11.970Z,10.28
2022-10-02T21:42:25.137Z,10.42
2022-10-02T21:45:10.194Z,10.52
2022-10-02T21:48:16.594Z,10.57
2022-10-02T21:51:20.562Z,10.64
2022-10-02T21:54:11.565Z,10.64
2022-10-02T21:57:10.844Z,10.53
2022-10-02T22:00:23.208Z,10.57
2022-10-02T22:03:20.572Z,10.42
2022-10-02T22:06:29.377Z,10.39
2022-10-02T22:09:48.425Z,10.32
2022-10-02T22:12:48.817Z,10.37
2022-10-02T22:16:00.592Z,10.28
2022-10-02T22:18:53.415Z,10.28
2022-10-02T22:21:47.819Z,10.26
2022-10-02T22:24:42.158Z,10.25
2022-10-02T22:27:30.147Z,10.20
2022-10-02T22:30:23.484Z,10.14
2022-10-02T22:33:23.930Z,10.13
2022-10-02T22:36:40.298Z,10.03
2022-10-02T22:39:25.128Z,10.07
2022-10-02T22:42:25.440Z,10.08
2022-10-02T22:45:21.591Z,10.11
2022-10-02T22:48:10.798Z,10.16
2022-10-02T22:51:04.037Z,10.00
2022-10-02T22:53:58.485Z,9.97
2022-10-02T22:57:01.997Z,9.91
2022-10-02T22:59:57.972Z,10.05
2022-10-02T23:02:52.611Z,10.14
2022-10-02T23:05:44.658Z,10.17
2022-10-02T23:08:52.004Z,10.14
2022-10-02T23:11:43.079Z,10.18
2022-10-02T23:14:47.878Z,10.21
2022-10-02T23:17:44.355Z,10.36
2022-10-02T23:20:36.739Z,10.30
2022-10-02T23:23:31.758Z,10.19
2022-10-02T23:26:16.738Z,10.28
2022-10-02T23:29:11.241Z,10.03
2022-10-02T23:32:17.390Z,10.07
2022-10-02T23:35:23.908Z,10.01
2022-10-02T23:38:20.974Z,9.90
2022-10-02T23:41:24.221Z,9.82
2022-10-02T23:44:28.896Z,9.99
2022-10-02T23:47:20.964Z,9.90
2022-10-02T23:50:21.598Z,9.87
2022-10-02T23:53:31.449Z,9.73
2022-10-02T23:56:38.716Z,9.75
2022-10-02T23:59:35.279Z,9.75
